Otterbein, Indiana
Current Conditions -  °F | °C
As of 4:54 PM on Sunday 21 Dec 2014 (Local Time) from KLAF Reporting Station
Clear Clear  
Wind Chill: 29°   Ceiling: Unl
Heat Index: 35°   Visibility: 9mi
Dew Point: 29°   Wind: 7mph
Humidity: 78%   Direction: 130°SE
Pressure: 30.13"   Gusts: NA
Location:  40.49°N, 87.1°W
Report Text: KLAF 212154Z 13006KT 9SM CLR 02/M02 A3013 RMK AO2 SLP209 T00171017
Loading
Personal Weather Stations






























Interactive Weather Map New forecast layout! Learn more

10-Day Weather Forecast

Advertisements
Track Severe Weather on mobile